createdAt,value
2023-03-25T00:02:17.827Z,99341.96
2023-03-25T00:04:57.565Z,99338.42
2023-03-25T00:07:29.850Z,99334.34
2023-03-25T00:10:01.073Z,99335.50
2023-03-25T00:12:37.336Z,99333.35
2023-03-25T00:15:14.012Z,99329.55
2023-03-25T00:17:46.525Z,99328.04
2023-03-25T00:20:19.523Z,99324.58
2023-03-25T00:22:58.088Z,99324.73
2023-03-25T00:25:32.238Z,99324.86
2023-03-25T00:28:07.275Z,99318.14
2023-03-25T00:30:43.755Z,99315.88
2023-03-25T00:33:21.047Z,99320.02
2023-03-25T00:35:58.787Z,99320.67
2023-03-25T00:38:35.086Z,99320.05
2023-03-25T00:41:17.321Z,99313.29
2023-03-25T00:44:00.763Z,99308.79
2023-03-25T00:46:39.630Z,99309.52
2023-03-25T00:49:15.339Z,99308.16
2023-03-25T00:51:53.102Z,99308.96
2023-03-25T00:54:26.973Z,99315.46
2023-03-25T00:57:03.677Z,99313.06
2023-03-25T00:59:36.854Z,99305.61
2023-03-25T01:02:09.893Z,99304.06
2023-03-25T01:04:41.891Z,99301.14
2023-03-25T01:07:31.667Z,99300.64
2023-03-25T01:10:02.697Z,99305.27
2023-03-25T01:12:41.624Z,99306.55
2023-03-25T01:15:12.149Z,99303.63
2023-03-25T01:17:46.372Z,99302.45
2023-03-25T01:20:21.749Z,99302.77
2023-03-25T01:22:58.487Z,99295.23
2023-03-25T01:25:41.806Z,99289.59
2023-03-25T01:28:20.786Z,99291.63
2023-03-25T01:31:09.433Z,99291.71
2023-03-25T01:33:43.235Z,99292.48
2023-03-25T01:36:17.238Z,99291.97
2023-03-25T01:38:51.309Z,99289.90
2023-03-25T01:41:35.681Z,99286.30
2023-03-25T01:44:17.870Z,99284.50
2023-03-25T01:46:54.266Z,99288.06
2023-03-25T01:49:52.998Z,99290.58
2023-03-25T01:52:31.548Z,99286.34
2023-03-25T01:55:05.836Z,99286.64
2023-03-25T01:57:43.698Z,99288.98
2023-03-25T02:00:17.754Z,99291.23
2023-03-25T02:02:59.932Z,99294.70
2023-03-25T02:05:46.878Z,99291.56
2023-03-25T02:08:17.295Z,99293.66
2023-03-25T02:10:51.955Z,99295.36
2023-03-25T02:13:22.758Z,99293.25
2023-03-25T02:16:21.113Z,99287.98
2023-03-25T02:19:20.482Z,99281.90
2023-03-25T02:22:14.333Z,99276.28
2023-03-25T02:25:45.578Z,99272.01
2023-03-25T02:28:51.646Z,99265.10
2023-03-25T02:31:52.301Z,99264.20
2023-03-25T02:34:37.395Z,99260.73
2023-03-25T02:37:45.242Z,99257.30
2023-03-25T02:40:26.329Z,99252.42
2023-03-25T02:43:04.404Z,99252.02
2023-03-25T02:45:46.320Z,99250.48
2023-03-25T02:48:53.729Z,99253.45
2023-03-25T02:52:08.025Z,99249.98
2023-03-25T02:54:43.938Z,99244.41
2023-03-25T02:57:18.874Z,99246.41
2023-03-25T02:59:54.083Z,99245.40
2023-03-25T03:02:27.265Z,99251.39
2023-03-25T03:05:02.961Z,99253.58
2023-03-25T03:07:49.679Z,99254.61
2023-03-25T03:10:32.086Z,99253.54
2023-03-25T03:13:46.886Z,99257.48
2023-03-25T03:16:33.446Z,99258.27
2023-03-25T03:19:45.985Z,99260.33
2023-03-25T03:22:25.281Z,99253.20
2023-03-25T03:25:37.104Z,99258.20
2023-03-25T03:28:37.726Z,99265.38
2023-03-25T03:31:48.170Z,99270.02
2023-03-25T03:35:02.172Z,99269.35
2023-03-25T03:37:42.366Z,99270.02
2023-03-25T03:40:24.890Z,99272.95
2023-03-25T03:43:43.584Z,99276.10
2023-03-25T03:46:32.379Z,99272.77
2023-03-25T03:49:16.827Z,99273.41
2023-03-25T03:52:03.420Z,99272.08
2023-03-25T03:55:03.197Z,99268.48
2023-03-25T03:57:48.172Z,99272.55
2023-03-25T04:00:28.043Z,99272.64
2023-03-25T04:03:15.800Z,99269.39
2023-03-25T04:05:52.702Z,99268.83
2023-03-25T04:09:00.105Z,99272.63
2023-03-25T04:11:49.634Z,99275.70
2023-03-25T04:14:21.988Z,99280.49
2023-03-25T04:16:59.731Z,99280.24
2023-03-25T04:19:33.742Z,99277.98
2023-03-25T04:22:04.254Z,99279.92
2023-03-25T04:24:37.277Z,99278.77
2023-03-25T04:27:05.854Z,99281.56
2023-03-25T04:29:35.925Z,99277.47
2023-03-25T04:32:07.657Z,99276.67
2023-03-25T04:34:36.504Z,99280.48
2023-03-25T04:37:10.432Z,99278.30
2023-03-25T04:39:39.554Z,99274.54
2023-03-25T04:42:13.452Z,99276.67
2023-03-25T04:44:45.818Z,99279.27
2023-03-25T04:47:17.447Z,99282.65
2023-03-25T04:49:49.058Z,99283.13
2023-03-25T04:52:17.427Z,99284.91
2023-03-25T04:54:46.134Z,99291.76
2023-03-25T04:57:14.901Z,99290.80
2023-03-25T04:59:46.517Z,99284.08
2023-03-25T05:02:18.889Z,99290.39
2023-03-25T05:04:53.565Z,99290.31
2023-03-25T05:07:26.545Z,99288.08
2023-03-25T05:10:02.484Z,99287.83
2023-03-25T05:12:31.106Z,99291.90
2023-03-25T05:14:59.756Z,99296.17
2023-03-25T05:17:34.872Z,99296.64
2023-03-25T05:20:14.627Z,99297.21
2023-03-25T05:22:48.500Z,99299.84
2023-03-25T05:25:35.421Z,99297.73
2023-03-25T05:28:15.818Z,99294.79
2023-03-25T05:30:49.741Z,99297.50
2023-03-25T05:33:29.416Z,99295.03
2023-03-25T05:36:05.023Z,99294.70
2023-03-25T05:38:37.044Z,99291.86
2023-03-25T05:41:10.440Z,99285.94
2023-03-25T05:43:47.178Z,99289.22
2023-03-25T05:46:22.788Z,99286.54
2023-03-25T05:48:56.767Z,99284.89
2023-03-25T05:51:36.882Z,99281.95
2023-03-25T05:54:24.103Z,99279.64
2023-03-25T05:56:56.365Z,99284.48
2023-03-25T05:59:26.192Z,99286.06
2023-03-25T06:02:00.142Z,99283.92
2023-03-25T06:04:33.914Z,99286.70
2023-03-25T06:07:19.293Z,99287.27
2023-03-25T06:09:56.174Z,99290.23
2023-03-25T06:12:32.824Z,99288.91
2023-03-25T06:15:17.538Z,99291.81
2023-03-25T06:17:53.557Z,99289.21
2023-03-25T06:20:24.550Z,99288.60
2023-03-25T06:23:03.021Z,99288.43
2023-03-25T06:25:40.692Z,99292.13
2023-03-25T06:28:18.227Z,99290.84
2023-03-25T06:31:00.656Z,99291.04
2023-03-25T06:33:43.438Z,99294.66
2023-03-25T06:36:22.201Z,99293.69
2023-03-25T06:39:11.228Z,99292.38
2023-03-25T06:41:45.117Z,99298.71
2023-03-25T06:44:28.532Z,99298.67
2023-03-25T06:47:18.769Z,99300.82
2023-03-25T06:50:05.867Z,99301.85
2023-03-25T06:52:44.830Z,99300.14
2023-03-25T06:55:15.012Z,99297.33
2023-03-25T06:57:46.610Z,99301.44
2023-03-25T07:00:19.941Z,99298.60
2023-03-25T07:02:53.174Z,99293.12
2023-03-25T07:05:31.103Z,99290.40
2023-03-25T07:08:01.952Z,99287.17
2023-03-25T07:10:36.172Z,99286.20
2023-03-25T07:13:07.557Z,99286.52
2023-03-25T07:15:41.966Z,99284.79
2023-03-25T07:18:13.323Z,99285.27
2023-03-25T07:20:46.472Z,99291.52
2023-03-25T07:23:18.073Z,99294.92
2023-03-25T07:25:46.561Z,99289.89
2023-03-25T07:28:20.249Z,99291.20
2023-03-25T07:30:49.354Z,99291.28
2023-03-25T07:33:21.177Z,99285.02
2023-03-25T07:35:49.403Z,99284.91
2023-03-25T07:38:22.565Z,99285.58
2023-03-25T07:40:57.894Z,99290.93
2023-03-25T07:43:32.815Z,99286.71
2023-03-25T07:46:13.384Z,99284.58
2023-03-25T07:48:48.149Z,99286.86
2023-03-25T07:51:40.134Z,99289.41
2023-03-25T07:54:12.799Z,99286.06
2023-03-25T07:56:43.782Z,99287.46
2023-03-25T07:59:29.629Z,99282.88
2023-03-25T08:02:02.767Z,99286.36
2023-03-25T08:04:40.387Z,99287.02
2023-03-25T08:07:23.457Z,99285.58
2023-03-25T08:10:02.722Z,99283.64
2023-03-25T08:12:40.910Z,99281.20
2023-03-25T08:15:26.610Z,99280.91
2023-03-25T08:18:09.244Z,99282.52
2023-03-25T08:20:44.946Z,99286.27
2023-03-25T08:23:28.441Z,99286.25
2023-03-25T08:26:02.938Z,99281.55
2023-03-25T08:28:38.862Z,99281.84
2023-03-25T08:31:27.457Z,99278.52
2023-03-25T08:34:09.360Z,99276.66
2023-03-25T08:36:43.157Z,99273.68
2023-03-25T08:39:20.015Z,99272.76
2023-03-25T08:41:53.532Z,99273.97
2023-03-25T08:44:25.048Z,99273.14
2023-03-25T08:47:00.914Z,99274.67
2023-03-25T08:49:32.191Z,99275.23
2023-03-25T08:52:22.939Z,99278.56
2023-03-25T08:54:53.152Z,99276.46
2023-03-25T08:57:26.198Z,99279.70
2023-03-25T09:00:00.323Z,99281.46
2023-03-25T09:02:41.567Z,99287.58
2023-03-25T09:05:18.594Z,99287.98
2023-03-25T09:08:11.226Z,99284.20
2023-03-25T09:11:01.517Z,99284.34
2023-03-25T09:13:34.324Z,99287.42
2023-03-25T09:16:07.496Z,99289.21
2023-03-25T09:18:41.126Z,99291.56
2023-03-25T09:21:22.879Z,99288.91
2023-03-25T09:23:55.463Z,99291.91
2023-03-25T09:26:35.933Z,99289.97
2023-03-25T09:29:12.884Z,99294.33
2023-03-25T09:31:43.910Z,99296.48
2023-03-25T09:34:16.254Z,99304.39
2023-03-25T09:36:50.090Z,99304.94
2023-03-25T09:39:21.814Z,99313.33
2023-03-25T09:42:13.588Z,99322.97
2023-03-25T09:45:28.203Z,99323.03
2023-03-25T09:48:21.242Z,99314.34
2023-03-25T09:50:58.018Z,99299.05
2023-03-25T09:54:09.391Z,99290.58
2023-03-25T09:56:46.554Z,99288.21
2023-03-25T09:59:44.226Z,99284.71
2023-03-25T10:02:49.592Z,99280.64
2023-03-25T10:05:54.542Z,99275.89
2023-03-25T10:08:46.583Z,99269.35
2023-03-25T10:11:42.028Z,99261.32
2023-03-25T10:14:50.926Z,99255.54
2023-03-25T10:17:58.985Z,99252.51
2023-03-25T10:21:15.314Z,99240.67
2023-03-25T10:24:08.412Z,99235.96
2023-03-25T10:27:08.370Z,99237.52
2023-03-25T10:30:15.278Z,99237.25
2023-03-25T10:33:10.170Z,99239.73
2023-03-25T10:35:47.399Z,99232.55
2023-03-25T10:38:25.858Z,99229.45
2023-03-25T10:41:26.321Z,99225.84
2023-03-25T10:43:59.906Z,99221.96
2023-03-25T10:46:54.759Z,99219.17
2023-03-25T10:49:30.311Z,99213.15
2023-03-25T10:52:02.656Z,99213.90
2023-03-25T10:54:42.043Z,99212.29
2023-03-25T10:57:32.403Z,99210.42
2023-03-25T11:00:23.225Z,99216.83
2023-03-25T11:02:54.567Z,99221.44
2023-03-25T11:05:31.773Z,99217.67
2023-03-25T11:08:18.250Z,99216.91
2023-03-25T11:11:00.453Z,99226.08
2023-03-25T11:13:32.589Z,99228.95
2023-03-25T11:16:23.129Z,99243.96
2023-03-25T11:19:05.745Z,99259.71
2023-03-25T11:21:49.784Z,99253.07
2023-03-25T11:24:47.837Z,99242.24
2023-03-25T11:27:30.149Z,99226.45
2023-03-25T11:30:19.527Z,99227.39
2023-03-25T11:33:28.142Z,99233.88
2023-03-25T11:36:46.589Z,99242.80
2023-03-25T11:39:43.676Z,99243.92
2023-03-25T11:42:28.363Z,99244.64
2023-03-25T11:45:26.680Z,99242.21
2023-03-25T11:48:32.755Z,99241.44
2023-03-25T11:51:06.754Z,99239.91
2023-03-25T11:53:58.723Z,99227.11
2023-03-25T11:56:53.719Z,99212.92
2023-03-25T11:59:54.366Z,99205.07
2023-03-25T12:02:40.859Z,99198.44
2023-03-25T12:05:12.838Z,99195.97
2023-03-25T12:07:58.642Z,99194.96
2023-03-25T12:10:59.652Z,99194.65
2023-03-25T12:14:32.875Z,99188.80
2023-03-25T12:17:38.427Z,99188.19
2023-03-25T12:20:21.547Z,99190.88
2023-03-25T12:23:27.402Z,99185.06
2023-03-25T12:26:13.066Z,99179.45
2023-03-25T12:29:26.484Z,99174.64
2023-03-25T12:32:30.705Z,99168.30
2023-03-25T12:36:06.094Z,99166.16
2023-03-25T12:39:35.611Z,99164.67
2023-03-25T12:42:45.535Z,99158.12
2023-03-25T12:45:50.449Z,99155.79
2023-03-25T12:48:55.131Z,99154.94
2023-03-25T12:52:21.184Z,99152.20
2023-03-25T12:55:45.756Z,99150.55
2023-03-25T12:59:05.764Z,99151.31
2023-03-25T13:02:09.535Z,99149.73
2023-03-25T13:05:06.041Z,99153.19
2023-03-25T13:07:42.002Z,99152.95
2023-03-25T13:10:24.863Z,99150.94
2023-03-25T13:13:18.139Z,99146.70
2023-03-25T13:16:28.191Z,99148.80
2023-03-25T13:19:17.882Z,99139.01
2023-03-25T13:22:13.223Z,99139.15
2023-03-25T13:25:02.424Z,99137.79
2023-03-25T13:27:40.149Z,99132.52
2023-03-25T13:30:53.071Z,99129.02
2023-03-25T13:33:40.212Z,99139.30
2023-03-25T13:36:30.873Z,99140.89
2023-03-25T13:39:31.533Z,99142.67
2023-03-25T13:42:57.890Z,99147.60
2023-03-25T13:45:44.357Z,99139.94
2023-03-25T13:48:35.963Z,99134.23
2023-03-25T13:51:15.158Z,99128.80
2023-03-25T13:53:56.089Z,99126.16
2023-03-25T13:56:52.677Z,99124.27
2023-03-25T14:00:07.908Z,99123.20
2023-03-25T14:03:37.488Z,99124.68
2023-03-25T14:06:32.504Z,99122.29
2023-03-25T14:09:42.619Z,99123.95
2023-03-25T14:12:44.655Z,99122.42
2023-03-25T14:15:51.536Z,99114.89
2023-03-25T14:18:31.879Z,99117.34
2023-03-25T14:21:31.072Z,99113.91
2023-03-25T14:24:31.841Z,99116.81
2023-03-25T14:28:03.150Z,99122.13
2023-03-25T14:31:21.828Z,99129.65
2023-03-25T14:34:13.597Z,99140.84
2023-03-25T14:36:51.864Z,99147.75
2023-03-25T14:39:38.493Z,99144.66
2023-03-25T14:46:27.265Z,99151.02
2023-03-25T14:49:12.904Z,99151.00
2023-03-25T14:52:03.695Z,99149.27
2023-03-25T14:54:43.069Z,99153.35
2023-03-25T14:58:05.028Z,99153.85
2023-03-25T15:01:18.255Z,99153.35
2023-03-25T15:04:11.342Z,99153.39
2023-03-25T15:06:48.973Z,99153.63
2023-03-25T15:09:23.353Z,99153.23
2023-03-25T15:15:11.800Z,99156.98
2023-03-25T15:18:04.460Z,99156.83
2023-03-25T15:21:02.366Z,99160.63
2023-03-25T15:23:59.638Z,99162.02
2023-03-25T15:27:04.158Z,99163.39
2023-03-25T15:30:12.046Z,99163.77
2023-03-25T15:33:13.012Z,99163.54
2023-03-25T15:37:10.844Z,99164.92
2023-03-25T15:40:50.714Z,99165.65
2023-03-25T15:44:19.867Z,99166.38
2023-03-25T15:47:33.466Z,99162.67
2023-03-25T15:50:35.067Z,99162.40
2023-03-25T15:53:46.488Z,99164.14
2023-03-25T15:57:12.679Z,99161.90
2023-03-25T16:00:24.173Z,99163.48
2023-03-25T16:03:24.643Z,99161.13
2023-03-25T16:06:23.008Z,99160.69
2023-03-25T16:09:55.684Z,99157.44
2023-03-25T16:13:14.114Z,99159.80
2023-03-25T16:16:10.490Z,99165.36
2023-03-25T16:19:51.303Z,99168.38
2023-03-25T16:22:58.924Z,99171.39
2023-03-25T16:25:59.870Z,99170.73
2023-03-25T16:28:46.679Z,99167.92
2023-03-25T16:31:50.892Z,99164.54
2023-03-25T16:34:34.453Z,99170.68
2023-03-25T16:37:10.031Z,99175.05
2023-03-25T16:39:45.476Z,99175.12
2023-03-25T16:42:50.522Z,99175.17
2023-03-25T16:45:30.034Z,99176.59
2023-03-25T16:48:39.006Z,99176.64
2023-03-25T16:51:25.356Z,99179.93
2023-03-25T16:54:48.518Z,99178.48
2023-03-25T16:57:37.236Z,99180.70
2023-03-25T17:00:46.135Z,99181.30
2023-03-25T17:03:48.744Z,99184.27
2023-03-25T17:06:45.673Z,99187.55
2023-03-25T17:09:35.890Z,99189.00
2023-03-25T17:12:26.176Z,99186.34
2023-03-25T17:15:13.894Z,99186.36
2023-03-25T17:18:18.542Z,99188.31
2023-03-25T17:21:02.080Z,99186.02
2023-03-25T17:23:52.129Z,99189.38
2023-03-25T17:27:00.431Z,99190.20
2023-03-25T17:29:49.071Z,99192.48
2023-03-25T17:32:34.724Z,99192.70
2023-03-25T17:35:32.475Z,99195.48
2023-03-25T17:38:08.598Z,99192.94
2023-03-25T17:40:41.890Z,99194.39
2023-03-25T17:43:31.117Z,99195.65
2023-03-25T17:46:23.224Z,99197.86
2023-03-25T17:49:19.567Z,99200.25
2023-03-25T17:51:57.846Z,99201.30
2023-03-25T17:54:55.804Z,99202.41
2023-03-25T17:57:37.331Z,99204.45
2023-03-25T18:00:20.732Z,99208.25
2023-03-25T18:03:02.165Z,99209.44
2023-03-25T18:05:35.389Z,99212.64
2023-03-25T18:08:16.432Z,99212.41
2023-03-25T18:10:53.414Z,99216.57
2023-03-25T18:13:26.812Z,99222.83
2023-03-25T18:16:05.916Z,99224.71
2023-03-25T18:18:41.258Z,99226.80
2023-03-25T18:21:17.793Z,99226.27
2023-03-25T18:23:48.507Z,99224.86
2023-03-25T18:26:22.352Z,99221.63
2023-03-25T18:29:02.809Z,99219.91
2023-03-25T18:31:42.056Z,99221.73
2023-03-25T18:34:26.632Z,99219.56
2023-03-25T18:37:05.016Z,99221.41
2023-03-25T18:39:40.917Z,99223.48
2023-03-25T18:42:36.112Z,99227.36
2023-03-25T18:45:20.423Z,99227.61
2023-03-25T18:48:02.890Z,99229.14
2023-03-25T18:50:46.222Z,99230.30
2023-03-25T18:53:42.785Z,99230.83
2023-03-25T18:56:43.763Z,99230.08
2023-03-25T18:59:51.014Z,99226.78
2023-03-25T19:02:54.400Z,99224.11
2023-03-25T19:05:59.908Z,99222.71
2023-03-25T19:09:15.221Z,99222.25
2023-03-25T19:12:12.204Z,99220.93
2023-03-25T19:14:51.422Z,99220.95
2023-03-25T19:21:17.896Z,99217.30
2023-03-25T19:24:26.837Z,99224.55
2023-03-25T19:27:05.156Z,99224.19
2023-03-25T19:29:52.176Z,99222.60
2023-03-25T19:32:31.228Z,99228.90
2023-03-25T19:35:07.881Z,99233.25
2023-03-25T19:38:07.536Z,99233.86
2023-03-25T19:40:42.423Z,99238.89
2023-03-25T19:43:29.408Z,99238.50
2023-03-25T19:46:11.411Z,99242.66
2023-03-25T19:49:04.008Z,99244.33
2023-03-25T19:52:09.098Z,99242.73
2023-03-25T19:55:06.083Z,99241.63
2023-03-25T19:57:53.217Z,99242.50
2023-03-25T20:00:33.180Z,99241.11
2023-03-25T20:03:33.301Z,99244.48
2023-03-25T20:06:08.640Z,99241.86
2023-03-25T20:08:48.542Z,99243.39
2023-03-25T20:11:36.271Z,99249.21
2023-03-25T20:14:26.311Z,99251.11
2023-03-25T20:17:15.172Z,99250.80
2023-03-25T20:19:51.629Z,99248.52
2023-03-25T20:22:43.575Z,99244.75
2023-03-25T20:25:40.821Z,99242.27
2023-03-25T20:28:29.979Z,99244.39
2023-03-25T20:31:20.795Z,99242.98
2023-03-25T20:34:04.469Z,99243.20
2023-03-25T20:36:37.310Z,99244.23
2023-03-25T20:39:13.880Z,99245.50
2023-03-25T20:41:54.757Z,99246.45
2023-03-25T20:44:28.818Z,99248.80
2023-03-25T20:46:57.522Z,99252.85
2023-03-25T20:49:40.107Z,99255.65
2023-03-25T20:52:21.729Z,99254.67
2023-03-25T20:54:59.189Z,99253.65
2023-03-25T20:57:31.708Z,99253.05
2023-03-25T21:00:07.530Z,99252.17
2023-03-25T21:02:58.139Z,99253.53
2023-03-25T21:06:07.397Z,99254.08
2023-03-25T21:09:09.740Z,99255.26
2023-03-25T21:11:40.917Z,99258.04
2023-03-25T21:14:21.390Z,99257.61
2023-03-25T21:16:49.900Z,99255.98
2023-03-25T21:19:21.517Z,99252.73
2023-03-25T21:22:00.615Z,99252.14
2023-03-25T21:24:31.044Z,99246.90
2023-03-25T21:27:00.161Z,99245.23
2023-03-25T21:29:37.756Z,99241.42
2023-03-25T21:32:14.813Z,99241.98
2023-03-25T21:34:51.240Z,99239.06
2023-03-25T21:37:20.357Z,99236.46
2023-03-25T21:40:03.390Z,99235.84
2023-03-25T21:42:34.105Z,99233.04
2023-03-25T21:45:06.544Z,99229.47
2023-03-25T21:47:36.855Z,99227.96
2023-03-25T21:50:09.396Z,99225.05
2023-03-25T21:52:49.392Z,99226.65
2023-03-25T21:55:33.636Z,99225.81
2023-03-25T21:58:10.100Z,99224.27
2023-03-25T22:00:43.994Z,99224.23
2023-03-25T22:03:20.800Z,99221.80
2023-03-25T22:06:26.874Z,99217.36
2023-03-25T22:09:08.450Z,99215.06
2023-03-25T22:11:37.240Z,99215.30
2023-03-25T22:14:09.513Z,99215.14
2023-03-25T22:16:43.357Z,99214.50
2023-03-25T22:19:24.048Z,99216.46
2023-03-25T22:22:01.645Z,99217.23
2023-03-25T22:24:33.046Z,99216.86
2023-03-25T22:27:15.998Z,99215.16
2023-03-25T22:30:07.290Z,99214.17
2023-03-25T22:32:42.376Z,99215.26
2023-03-25T22:35:13.701Z,99215.38
2023-03-25T22:37:42.604Z,99209.67
2023-03-25T22:40:14.867Z,99210.25
2023-03-25T22:42:43.247Z,99210.27
2023-03-25T22:45:12.079Z,99214.36
2023-03-25T22:47:51.948Z,99213.40
2023-03-25T22:50:25.858Z,99210.17
2023-03-25T22:53:04.188Z,99209.58
2023-03-25T22:55:34.427Z,99211.21
2023-03-25T22:58:03.217Z,99209.36
2023-03-25T23:00:38.935Z,99203.03
2023-03-25T23:03:12.784Z,99202.63
2023-03-25T23:06:04.406Z,99201.70
2023-03-25T23:08:47.007Z,99200.27
2023-03-25T23:11:25.943Z,99203.95
2023-03-25T23:14:07.132Z,99210.21
2023-03-25T23:16:43.339Z,99203.80
2023-03-25T23:19:13.543Z,99199.85
2023-03-25T23:21:45.296Z,99196.90
2023-03-25T23:24:21.657Z,99196.48
2023-03-25T23:27:02.498Z,99197.54
2023-03-25T23:29:32.856Z,99199.44
2023-03-25T23:32:10.026Z,99200.73
2023-03-25T23:34:41.074Z,99193.58
2023-03-25T23:37:13.085Z,99192.11
2023-03-25T23:39:45.695Z,99188.02
2023-03-25T23:42:17.468Z,99189.94
2023-03-25T23:44:56.707Z,99187.23
2023-03-25T23:47:28.008Z,99186.04
2023-03-25T23:50:12.169Z,99186.45
2023-03-25T23:52:50.842Z,99183.91
2023-03-25T23:55:25.399Z,99180.34
2023-03-25T23:58:02.308Z,99182.52
